ENSO/SRP METAR and TAF weather

Enter ICAO airport designator
Station Type Date Time Source
ENSO METAR 2019/04/21 16:50 UTC NOAA

ENSO 211650Z 17008KT CAVOK 13/04 Q1018


Station Type Date Time Source
ENSO Decoded METAR 2019/04/21 16:50 UTC NOAA

Stord / Soerstokken, Norway (ENSO) 59-48N 005-21E
Apr 21, 2019 - 12:50 PM EDT / 2019.04.21 1650 UTC
Wind: from the S (170 degrees) at 9 MPH (8 KT):0
Visibility: greater than 7 mile(s):0
Temperature: 55 F (13 C)
Dew Point: 39 F (4 C)
Relative Humidity: 54%
Pressure (altimeter): 30.06 in. Hg (1018 hPa)
ob: ENSO 211650Z 17008KT CAVOK 13/04 Q1018
cycle: 17

Station Type Date Time Source
ENSO TAF UTC NOAA

Error!

Example: see airport list